sensor_id;sensor_type;location;lat;lon;timestamp;temperature;humidity
22950;DHT22;11641;51.018;4.474;2022-09-13T00:01:13;21.00;99.90
22950;DHT22;11641;51.018;4.474;2022-09-13T00:03:39;21.00;99.90
22950;DHT22;11641;51.018;4.474;2022-09-13T00:06:12;21.00;99.90
22950;DHT22;11641;51.018;4.474;2022-09-13T00:08:40;21.00;99.90
22950;DHT22;11641;51.018;4.474;2022-09-13T00:11:07;20.90;99.90
22950;DHT22;11641;51.018;4.474;2022-09-13T00:13:38;21.00;99.90
22950;DHT22;11641;51.018;4.474;2022-09-13T00:16:04;21.00;99.90
22950;DHT22;11641;51.018;4.474;2022-09-13T00:18:38;20.90;99.90
22950;DHT22;11641;51.018;4.474;2022-09-13T00:21:09;20.90;99.90
22950;DHT22;11641;51.018;4.474;2022-09-13T00:23:36;20.90;99.90
22950;DHT22;11641;51.018;4.474;2022-09-13T00:26:04;21.00;99.90
22950;DHT22;11641;51.018;4.474;2022-09-13T00:28:30;21.10;99.90
22950;DHT22;11641;51.018;4.474;2022-09-13T00:30:59;21.00;99.90
22950;DHT22;11641;51.018;4.474;2022-09-13T00:33:25;21.10;99.90
22950;DHT22;11641;51.018;4.474;2022-09-13T00:35:51;21.10;99.90
22950;DHT22;11641;51.018;4.474;2022-09-13T00:38:17;21.20;99.90
22950;DHT22;11641;51.018;4.474;2022-09-13T00:40:42;21.20;99.90
22950;DHT22;11641;51.018;4.474;2022-09-13T00:43:19;21.20;99.90
22950;DHT22;11641;51.018;4.474;2022-09-13T00:45:46;21.20;99.90
22950;DHT22;11641;51.018;4.474;2022-09-13T00:48:20;21.20;99.90
22950;DHT22;11641;51.018;4.474;2022-09-13T00:50:50;21.20;99.90
22950;DHT22;11641;51.018;4.474;2022-09-13T00:53:27;21.20;99.90
22950;DHT22;11641;51.018;4.474;2022-09-13T00:56:01;21.20;99.90
22950;DHT22;11641;51.018;4.474;2022-09-13T00:58:35;21.20;99.90
22950;DHT22;11641;51.018;4.474;2022-09-13T01:01:03;21.10;99.90
22950;DHT22;11641;51.018;4.474;2022-09-13T01:03:32;21.10;99.90
22950;DHT22;11641;51.018;4.474;2022-09-13T01:06:09;21.10;99.90
22950;DHT22;11641;51.018;4.474;2022-09-13T01:08:38;21.10;99.90
22950;DHT22;11641;51.018;4.474;2022-09-13T01:11:10;21.10;99.90
22950;DHT22;11641;51.018;4.474;2022-09-13T01:13:38;21.10;99.90
22950;DHT22;11641;51.018;4.474;2022-09-13T01:16:08;21.00;99.90
22950;DHT22;11641;51.018;4.474;2022-09-13T01:18:34;21.10;99.90
22950;DHT22;11641;51.018;4.474;2022-09-13T01:24:43;21.10;99.90
22950;DHT22;11641;51.018;4.474;2022-09-13T01:27:40;21.10;99.90
22950;DHT22;11641;51.018;4.474;2022-09-13T01:30:23;21.10;99.90
22950;DHT22;11641;51.018;4.474;2022-09-13T01:50:01;21.00;99.90
22950;DHT22;11641;51.018;4.474;2022-09-13T01:57:53;20.90;99.90
22950;DHT22;11641;51.018;4.474;2022-09-13T02:00:21;20.80;99.90
22950;DHT22;11641;51.018;4.474;2022-09-13T02:07:58;20.70;99.90
22950;DHT22;11641;51.018;4.474;2022-09-13T02:10:33;20.70;99.90
22950;DHT22;11641;51.018;4.474;2022-09-13T02:13:04;20.70;99.90
22950;DHT22;11641;51.018;4.474;2022-09-13T02:16:10;20.60;99.90
22950;DHT22;11641;51.018;4.474;2022-09-13T02:18:42;20.60;99.90
22950;DHT22;11641;51.018;4.474;2022-09-13T02:21:15;20.60;99.90
22950;DHT22;11641;51.018;4.474;2022-09-13T02:23:49;20.60;99.90
22950;DHT22;11641;51.018;4.474;2022-09-13T02:26:18;20.60;99.90
22950;DHT22;11641;51.018;4.474;2022-09-13T02:28:50;20.50;99.90
22950;DHT22;11641;51.018;4.474;2022-09-13T02:31:32;20.50;99.90
22950;DHT22;11641;51.018;4.474;2022-09-13T02:34:38;20.40;99.90
22950;DHT22;11641;51.018;4.474;2022-09-13T02:37:07;20.30;99.90
22950;DHT22;11641;51.018;4.474;2022-09-13T02:39:37;20.30;99.90
22950;DHT22;11641;51.018;4.474;2022-09-13T02:44:53;20.20;99.90
22950;DHT22;11641;51.018;4.474;2022-09-13T02:58:57;20.20;99.90
22950;DHT22;11641;51.018;4.474;2022-09-13T03:01:26;20.20;99.90
22950;DHT22;11641;51.018;4.474;2022-09-13T03:03:52;20.20;99.90
22950;DHT22;11641;51.018;4.474;2022-09-13T03:06:29;20.20;99.90
22950;DHT22;11641;51.018;4.474;2022-09-13T03:08:57;20.20;99.90
22950;DHT22;11641;51.018;4.474;2022-09-13T03:25:13;20.20;99.90
22950;DHT22;11641;51.018;4.474;2022-09-13T03:28:22;20.20;99.90
22950;DHT22;11641;51.018;4.474;2022-09-13T03:30:56;20.20;99.90
22950;DHT22;11641;51.018;4.474;2022-09-13T03:33:56;20.20;99.90
22950;DHT22;11641;51.018;4.474;2022-09-13T03:36:36;20.20;99.90
22950;DHT22;11641;51.018;4.474;2022-09-13T03:39:33;20.20;99.90
22950;DHT22;11641;51.018;4.474;2022-09-13T03:42:22;20.30;99.90
22950;DHT22;11641;51.018;4.474;2022-09-13T03:44:50;20.30;99.90
22950;DHT22;11641;51.018;4.474;2022-09-13T03:47:21;20.30;99.90
22950;DHT22;11641;51.018;4.474;2022-09-13T03:49:48;20.30;99.90
22950;DHT22;11641;51.018;4.474;2022-09-13T03:52:16;20.40;99.90
22950;DHT22;11641;51.018;4.474;2022-09-13T03:54:43;20.30;99.90
22950;DHT22;11641;51.018;4.474;2022-09-13T03:57:20;20.30;99.90
22950;DHT22;11641;51.018;4.474;2022-09-13T03:59:52;20.40;99.90
22950;DHT22;11641;51.018;4.474;2022-09-13T04:02:22;20.40;99.90
22950;DHT22;11641;51.018;4.474;2022-09-13T04:04:49;20.30;99.90
22950;DHT22;11641;51.018;4.474;2022-09-13T04:07:18;20.40;99.90
22950;DHT22;11641;51.018;4.474;2022-09-13T04:09:44;20.40;99.90
22950;DHT22;11641;51.018;4.474;2022-09-13T04:12:14;20.40;99.90
22950;DHT22;11641;51.018;4.474;2022-09-13T04:14:40;20.40;99.90
22950;DHT22;11641;51.018;4.474;2022-09-13T04:17:08;20.30;99.90
22950;DHT22;11641;51.018;4.474;2022-09-13T04:19:39;20.40;99.90
22950;DHT22;11641;51.018;4.474;2022-09-13T04:22:07;20.30;99.90
22950;DHT22;11641;51.018;4.474;2022-09-13T04:24:39;20.30;99.90
22950;DHT22;11641;51.018;4.474;2022-09-13T04:27:05;20.30;99.90
22950;DHT22;11641;51.018;4.474;2022-09-13T04:29:31;20.30;99.90
22950;DHT22;11641;51.018;4.474;2022-09-13T04:31:57;20.30;99.90
22950;DHT22;11641;51.018;4.474;2022-09-13T04:34:26;20.20;99.90
22950;DHT22;11641;51.018;4.474;2022-09-13T04:36:52;20.20;99.90
22950;DHT22;11641;51.018;4.474;2022-09-13T04:39:21;20.20;99.90
22950;DHT22;11641;51.018;4.474;2022-09-13T04:41:51;20.20;99.90
22950;DHT22;11641;51.018;4.474;2022-09-13T04:44:19;20.20;99.90
22950;DHT22;11641;51.018;4.474;2022-09-13T04:46:51;20.20;99.90
22950;DHT22;11641;51.018;4.474;2022-09-13T04:49:19;20.20;99.90
22950;DHT22;11641;51.018;4.474;2022-09-13T04:51:46;20.20;99.90
22950;DHT22;11641;51.018;4.474;2022-09-13T04:54:13;20.20;99.90
22950;DHT22;11641;51.018;4.474;2022-09-13T04:56:42;20.10;99.90
22950;DHT22;11641;51.018;4.474;2022-09-13T04:59:08;20.10;99.90
22950;DHT22;11641;51.018;4.474;2022-09-13T05:01:35;20.10;99.90
22950;DHT22;11641;51.018;4.474;2022-09-13T05:04:04;20.10;99.90
22950;DHT22;11641;51.018;4.474;2022-09-13T05:06:30;20.10;99.90
22950;DHT22;11641;51.018;4.474;2022-09-13T05:08:56;20.00;99.90
22950;DHT22;11641;51.018;4.474;2022-09-13T05:11:25;20.10;99.90
22950;DHT22;11641;51.018;4.474;2022-09-13T05:13:52;20.00;99.90
22950;DHT22;11641;51.018;4.474;2022-09-13T05:16:22;20.10;99.90
22950;DHT22;11641;51.018;4.474;2022-09-13T05:18:48;20.10;99.90
22950;DHT22;11641;51.018;4.474;2022-09-13T05:21:14;20.10;99.90
22950;DHT22;11641;51.018;4.474;2022-09-13T05:23:40;20.10;99.90
22950;DHT22;11641;51.018;4.474;2022-09-13T05:26:07;20.10;99.90
22950;DHT22;11641;51.018;4.474;2022-09-13T05:28:34;20.10;99.90
22950;DHT22;11641;51.018;4.474;2022-09-13T05:31:23;20.20;99.90
22950;DHT22;11641;51.018;4.474;2022-09-13T05:33:53;20.20;99.90
22950;DHT22;11641;51.018;4.474;2022-09-13T05:36:21;20.20;99.90
22950;DHT22;11641;51.018;4.474;2022-09-13T05:38:47;20.20;99.90
22950;DHT22;11641;51.018;4.474;2022-09-13T05:41:15;20.20;99.90
22950;DHT22;11641;51.018;4.474;2022-09-13T05:43:44;20.20;99.90
22950;DHT22;11641;51.018;4.474;2022-09-13T05:46:12;20.30;99.90
22950;DHT22;11641;51.018;4.474;2022-09-13T05:48:39;20.30;99.90
22950;DHT22;11641;51.018;4.474;2022-09-13T05:51:20;20.30;99.90
22950;DHT22;11641;51.018;4.474;2022-09-13T05:53:47;20.40;99.90
22950;DHT22;11641;51.018;4.474;2022-09-13T05:56:16;20.40;99.90
22950;DHT22;11641;51.018;4.474;2022-09-13T05:58:46;20.40;99.90
22950;DHT22;11641;51.018;4.474;2022-09-13T06:01:17;20.40;99.90
22950;DHT22;11641;51.018;4.474;2022-09-13T06:03:45;20.50;99.90
22950;DHT22;11641;51.018;4.474;2022-09-13T06:06:16;20.50;99.90
22950;DHT22;11641;51.018;4.474;2022-09-13T06:08:43;20.50;99.90
22950;DHT22;11641;51.018;4.474;2022-09-13T06:11:11;20.50;99.90
22950;DHT22;11641;51.018;4.474;2022-09-13T06:13:37;20.60;99.90
22950;DHT22;11641;51.018;4.474;2022-09-13T06:16:07;20.60;99.90
22950;DHT22;11641;51.018;4.474;2022-09-13T06:18:38;20.60;99.90
22950;DHT22;11641;51.018;4.474;2022-09-13T06:21:10;20.60;99.90
22950;DHT22;11641;51.018;4.474;2022-09-13T06:23:37;20.70;99.90
22950;DHT22;11641;51.018;4.474;2022-09-13T06:26:05;20.70;99.90
22950;DHT22;11641;51.018;4.474;2022-09-13T06:28:33;20.80;99.90
22950;DHT22;11641;51.018;4.474;2022-09-13T06:31:10;20.80;99.90
22950;DHT22;11641;51.018;4.474;2022-09-13T06:33:37;21.00;99.90
22950;DHT22;11641;51.018;4.474;2022-09-13T06:36:05;21.10;99.90
22950;DHT22;11641;51.018;4.474;2022-09-13T06:38:32;21.10;99.90
22950;DHT22;11641;51.018;4.474;2022-09-13T06:41:09;21.20;99.90
22950;DHT22;11641;51.018;4.474;2022-09-13T06:43:38;21.40;99.90
22950;DHT22;11641;51.018;4.474;2022-09-13T06:46:14;21.40;99.90
22950;DHT22;11641;51.018;4.474;2022-09-13T06:48:43;21.40;99.90
22950;DHT22;11641;51.018;4.474;2022-09-13T06:51:15;21.50;99.90
22950;DHT22;11641;51.018;4.474;2022-09-13T06:53:42;21.70;99.90
22950;DHT22;11641;51.018;4.474;2022-09-13T06:56:14;21.80;99.90
22950;DHT22;11641;51.018;4.474;2022-09-13T06:58:42;21.70;99.90
22950;DHT22;11641;51.018;4.474;2022-09-13T07:01:19;21.80;99.90
22950;DHT22;11641;51.018;4.474;2022-09-13T07:03:53;22.00;99.90
22950;DHT22;11641;51.018;4.474;2022-09-13T07:06:24;22.10;99.90
22950;DHT22;11641;51.018;4.474;2022-09-13T07:08:56;22.20;99.90
22950;DHT22;11641;51.018;4.474;2022-09-13T07:11:25;22.40;99.90
22950;DHT22;11641;51.018;4.474;2022-09-13T07:13:56;22.30;99.90
22950;DHT22;11641;51.018;4.474;2022-09-13T07:16:27;22.30;99.90
22950;DHT22;11641;51.018;4.474;2022-09-13T07:18:56;22.50;99.90
22950;DHT22;11641;51.018;4.474;2022-09-13T07:21:26;22.70;99.90
22950;DHT22;11641;51.018;4.474;2022-09-13T07:23:53;22.90;99.90
22950;DHT22;11641;51.018;4.474;2022-09-13T07:26:22;23.00;99.90
22950;DHT22;11641;51.018;4.474;2022-09-13T07:28:50;23.20;99.90
22950;DHT22;11641;51.018;4.474;2022-09-13T07:31:20;23.20;99.90
22950;DHT22;11641;51.018;4.474;2022-09-13T07:33:49;23.20;99.90
22950;DHT22;11641;51.018;4.474;2022-09-13T07:36:17;23.20;99.90
22950;DHT22;11641;51.018;4.474;2022-09-13T07:38:43;23.30;99.90
22950;DHT22;11641;51.018;4.474;2022-09-13T07:41:12;23.30;99.90
22950;DHT22;11641;51.018;4.474;2022-09-13T07:43:38;23.60;99.90
22950;DHT22;11641;51.018;4.474;2022-09-13T07:46:06;23.80;99.90
22950;DHT22;11641;51.018;4.474;2022-09-13T07:48:35;24.20;99.90
22950;DHT22;11641;51.018;4.474;2022-09-13T07:51:20;24.50;99.90
22950;DHT22;11641;51.018;4.474;2022-09-13T07:53:47;24.70;99.90
22950;DHT22;11641;51.018;4.474;2022-09-13T07:56:15;24.80;99.90
22950;DHT22;11641;51.018;4.474;2022-09-13T07:58:43;24.90;99.90
22950;DHT22;11641;51.018;4.474;2022-09-13T08:01:24;24.70;99.90
22950;DHT22;11641;51.018;4.474;2022-09-13T08:03:57;24.70;99.90
22950;DHT22;11641;51.018;4.474;2022-09-13T08:06:25;24.70;99.90
22950;DHT22;11641;51.018;4.474;2022-09-13T08:08:52;24.30;99.90
22950;DHT22;11641;51.018;4.474;2022-09-13T08:13:46;24.30;99.90
22950;DHT22;11641;51.018;4.474;2022-09-13T08:16:17;24.60;99.90
22950;DHT22;11641;51.018;4.474;2022-09-13T08:18:44;24.80;99.90
22950;DHT22;11641;51.018;4.474;2022-09-13T08:21:13;25.30;99.90
22950;DHT22;11641;51.018;4.474;2022-09-13T08:23:39;25.70;99.90
22950;DHT22;11641;51.018;4.474;2022-09-13T08:26:08;26.10;99.90
22950;DHT22;11641;51.018;4.474;2022-09-13T08:28:35;26.60;99.90
22950;DHT22;11641;51.018;4.474;2022-09-13T08:33:35;27.10;99.90
22950;DHT22;11641;51.018;4.474;2022-09-13T08:36:02;27.30;99.90
22950;DHT22;11641;51.018;4.474;2022-09-13T08:38:29;27.20;99.90
22950;DHT22;11641;51.018;4.474;2022-09-13T08:40:58;27.30;99.90
22950;DHT22;11641;51.018;4.474;2022-09-13T08:43:33;27.60;99.90
22950;DHT22;11641;51.018;4.474;2022-09-13T08:46:24;27.80;99.90
22950;DHT22;11641;51.018;4.474;2022-09-13T08:48:59;28.30;99.90
22950;DHT22;11641;51.018;4.474;2022-09-13T08:51:27;28.40;99.90
22950;DHT22;11641;51.018;4.474;2022-09-13T08:53:58;28.60;99.90
22950;DHT22;11641;51.018;4.474;2022-09-13T08:56:33;28.60;99.90
22950;DHT22;11641;51.018;4.474;2022-09-13T08:59:32;28.50;99.90
22950;DHT22;11641;51.018;4.474;2022-09-13T09:05:03;28.90;99.90
22950;DHT22;11641;51.018;4.474;2022-09-13T09:07:36;29.20;99.90
22950;DHT22;11641;51.018;4.474;2022-09-13T09:10:11;29.40;99.90
22950;DHT22;11641;51.018;4.474;2022-09-13T09:12:50;29.40;99.90
22950;DHT22;11641;51.018;4.474;2022-09-13T09:15:28;29.60;99.90
22950;DHT22;11641;51.018;4.474;2022-09-13T09:18:13;29.70;99.90
22950;DHT22;11641;51.018;4.474;2022-09-13T09:20:55;29.60;99.90
22950;DHT22;11641;51.018;4.474;2022-09-13T09:23:29;29.60;99.90
22950;DHT22;11641;51.018;4.474;2022-09-13T09:26:09;30.20;99.90
22950;DHT22;11641;51.018;4.474;2022-09-13T09:28:36;31.20;98.60
22950;DHT22;11641;51.018;4.474;2022-09-13T09:34:35;33.60;91.70
22950;DHT22;11641;51.018;4.474;2022-09-13T09:37:23;34.70;89.00
22950;DHT22;11641;51.018;4.474;2022-09-13T09:39:51;34.30;84.80
22950;DHT22;11641;51.018;4.474;2022-09-13T09:42:25;33.20;86.50
22950;DHT22;11641;51.018;4.474;2022-09-13T09:44:58;32.10;90.60
22950;DHT22;11641;51.018;4.474;2022-09-13T09:47:27;31.50;92.80
22950;DHT22;11641;51.018;4.474;2022-09-13T09:50:10;31.40;92.80
22950;DHT22;11641;51.018;4.474;2022-09-13T09:52:48;32.20;92.80
22950;DHT22;11641;51.018;4.474;2022-09-13T09:55:42;33.70;90.80
22950;DHT22;11641;51.018;4.474;2022-09-13T09:58:11;34.90;84.60
22950;DHT22;11641;51.018;4.474;2022-09-13T10:00:55;35.70;82.30
22950;DHT22;11641;51.018;4.474;2022-09-13T10:03:33;37.20;77.10
22950;DHT22;11641;51.018;4.474;2022-09-13T10:06:20;38.70;70.50
22950;DHT22;11641;51.018;4.474;2022-09-13T10:08:54;39.30;66.90
22950;DHT22;11641;51.018;4.474;2022-09-13T10:11:22;39.00;65.10
22950;DHT22;11641;51.018;4.474;2022-09-13T10:14:02;38.00;65.80
22950;DHT22;11641;51.018;4.474;2022-09-13T10:16:29;36.80;69.10
22950;DHT22;11641;51.018;4.474;2022-09-13T10:19:23;36.00;72.50
22950;DHT22;11641;51.018;4.474;2022-09-13T10:22:00;34.90;73.30
22950;DHT22;11641;51.018;4.474;2022-09-13T10:24:32;34.20;76.00
22950;DHT22;11641;51.018;4.474;2022-09-13T10:26:59;34.20;76.80
22950;DHT22;11641;51.018;4.474;2022-09-13T10:29:28;34.50;75.40
22950;DHT22;11641;51.018;4.474;2022-09-13T10:31:54;34.50;75.90
22950;DHT22;11641;51.018;4.474;2022-09-13T10:34:26;34.40;75.80
22950;DHT22;11641;51.018;4.474;2022-09-13T10:42:21;33.80;79.90
22950;DHT22;11641;51.018;4.474;2022-09-13T10:45:03;34.00;78.30
22950;DHT22;11641;51.018;4.474;2022-09-13T10:47:47;34.10;76.50
22950;DHT22;11641;51.018;4.474;2022-09-13T10:52:46;33.60;79.40
22950;DHT22;11641;51.018;4.474;2022-09-13T10:55:27;33.70;78.50
22950;DHT22;11641;51.018;4.474;2022-09-13T10:58:10;33.90;78.70
22950;DHT22;11641;51.018;4.474;2022-09-13T11:09:21;37.00;69.30
22950;DHT22;11641;51.018;4.474;2022-09-13T11:14:50;36.20;70.60
22950;DHT22;11641;51.018;4.474;2022-09-13T11:20:19;37.30;68.70
22950;DHT22;11641;51.018;4.474;2022-09-13T11:23:57;38.30;65.10
22950;DHT22;11641;51.018;4.474;2022-09-13T11:28:55;40.90;60.10
22950;DHT22;11641;51.018;4.474;2022-09-13T11:45:30;39.20;58.70
22950;DHT22;11641;51.018;4.474;2022-09-13T11:56:53;40.20;56.70
22950;DHT22;11641;51.018;4.474;2022-09-13T12:05:06;40.20;57.10
22950;DHT22;11641;51.018;4.474;2022-09-13T12:07:58;41.50;55.50
22950;DHT22;11641;51.018;4.474;2022-09-13T12:12:58;42.60;52.00
22950;DHT22;11641;51.018;4.474;2022-09-13T12:15:39;41.20;53.40
22950;DHT22;11641;51.018;4.474;2022-09-13T12:18:33;39.50;56.10
22950;DHT22;11641;51.018;4.474;2022-09-13T12:21:13;38.10;58.90
22950;DHT22;11641;51.018;4.474;2022-09-13T12:29:49;35.90;63.60
22950;DHT22;11641;51.018;4.474;2022-09-13T12:32:16;35.40;64.90
22950;DHT22;11641;51.018;4.474;2022-09-13T12:34:57;34.90;65.30
22950;DHT22;11641;51.018;4.474;2022-09-13T12:43:14;33.50;70.70
22950;DHT22;11641;51.018;4.474;2022-09-13T12:48:42;32.90;72.70
22950;DHT22;11641;51.018;4.474;2022-09-13T12:54:22;32.20;74.60
22950;DHT22;11641;51.018;4.474;2022-09-13T13:00:09;31.20;79.80
22950;DHT22;11641;51.018;4.474;2022-09-13T13:06:05;30.50;83.00
22950;DHT22;11641;51.018;4.474;2022-09-13T13:08:32;30.30;86.20
22950;DHT22;11641;51.018;4.474;2022-09-13T13:11:07;30.20;91.70
22950;DHT22;11641;51.018;4.474;2022-09-13T13:13:39;30.00;92.20
22950;DHT22;11641;51.018;4.474;2022-09-13T13:18:57;29.80;93.60
22950;DHT22;11641;51.018;4.474;2022-09-13T13:21:36;29.70;96.90
22950;DHT22;11641;51.018;4.474;2022-09-13T13:26:49;29.50;96.50
22950;DHT22;11641;51.018;4.474;2022-09-13T13:32:03;29.30;99.20
22950;DHT22;11641;51.018;4.474;2022-09-13T13:34:42;29.20;99.90
22950;DHT22;11641;51.018;4.474;2022-09-13T13:42:25;28.90;99.90
22950;DHT22;11641;51.018;4.474;2022-09-13T13:49:51;28.50;99.90
22950;DHT22;11641;51.018;4.474;2022-09-13T14:00:35;28.00;99.90
22950;DHT22;11641;51.018;4.474;2022-09-13T14:06:08;27.90;99.90
22950;DHT22;11641;51.018;4.474;2022-09-13T14:08:54;27.90;99.90
22950;DHT22;11641;51.018;4.474;2022-09-13T14:22:25;27.40;99.90
22950;DHT22;11641;51.018;4.474;2022-09-13T14:24:58;27.40;99.90
22950;DHT22;11641;51.018;4.474;2022-09-13T14:27:39;27.20;99.90
22950;DHT22;11641;51.018;4.474;2022-09-13T14:30:25;27.10;99.90
22950;DHT22;11641;51.018;4.474;2022-09-13T14:32:54;27.00;99.90
22950;DHT22;11641;51.018;4.474;2022-09-13T14:38:23;26.60;99.90
22950;DHT22;11641;51.018;4.474;2022-09-13T14:40:59;26.50;99.90
22950;DHT22;11641;51.018;4.474;2022-09-13T14:43:27;26.30;99.90
22950;DHT22;11641;51.018;4.474;2022-09-13T14:48:49;26.10;99.90
22950;DHT22;11641;51.018;4.474;2022-09-13T14:51:34;25.90;99.90
22950;DHT22;11641;51.018;4.474;2022-09-13T14:54:26;25.70;99.90
22950;DHT22;11641;51.018;4.474;2022-09-13T14:57:01;25.60;99.90
22950;DHT22;11641;51.018;4.474;2022-09-13T14:59:44;25.30;99.90
22950;DHT22;11641;51.018;4.474;2022-09-13T15:02:26;25.40;99.90
22950;DHT22;11641;51.018;4.474;2022-09-13T15:04:57;25.20;99.90
22950;DHT22;11641;51.018;4.474;2022-09-13T15:07:28;25.20;99.90
22950;DHT22;11641;51.018;4.474;2022-09-13T15:10:18;25.20;99.90
22950;DHT22;11641;51.018;4.474;2022-09-13T15:17:59;25.30;99.90
22950;DHT22;11641;51.018;4.474;2022-09-13T15:20:43;25.30;99.90
22950;DHT22;11641;51.018;4.474;2022-09-13T15:26:18;25.20;99.90
22950;DHT22;11641;51.018;4.474;2022-09-13T15:31:21;25.20;99.90
22950;DHT22;11641;51.018;4.474;2022-09-13T15:36:46;25.20;99.90
22950;DHT22;11641;51.018;4.474;2022-09-13T15:39:18;25.30;99.90
22950;DHT22;11641;51.018;4.474;2022-09-13T15:41:59;25.20;99.90
22950;DHT22;11641;51.018;4.474;2022-09-13T15:44:26;25.20;99.90
22950;DHT22;11641;51.018;4.474;2022-09-13T15:46:56;25.00;99.90
22950;DHT22;11641;51.018;4.474;2022-09-13T15:49:25;24.80;99.90
22950;DHT22;11641;51.018;4.474;2022-09-13T15:51:57;24.80;99.90
22950;DHT22;11641;51.018;4.474;2022-09-13T15:54:31;24.70;99.90
22950;DHT22;11641;51.018;4.474;2022-09-13T15:56:58;24.80;99.90
22950;DHT22;11641;51.018;4.474;2022-09-13T15:59:24;25.00;99.90
22950;DHT22;11641;51.018;4.474;2022-09-13T16:01:51;25.00;99.90
22950;DHT22;11641;51.018;4.474;2022-09-13T16:04:20;25.10;99.90
22950;DHT22;11641;51.018;4.474;2022-09-13T16:06:48;25.10;99.90
22950;DHT22;11641;51.018;4.474;2022-09-13T16:09:18;25.20;99.90
22950;DHT22;11641;51.018;4.474;2022-09-13T16:11:47;25.10;99.90
22950;DHT22;11641;51.018;4.474;2022-09-13T16:14:16;25.00;99.90
22950;DHT22;11641;51.018;4.474;2022-09-13T16:16:42;24.90;99.90
22950;DHT22;11641;51.018;4.474;2022-09-13T16:19:13;24.90;99.90
22950;DHT22;11641;51.018;4.474;2022-09-13T16:21:40;24.90;99.90
22950;DHT22;11641;51.018;4.474;2022-09-13T16:24:05;24.90;99.90
22950;DHT22;11641;51.018;4.474;2022-09-13T16:26:34;24.90;99.90
22950;DHT22;11641;51.018;4.474;2022-09-13T16:29:00;24.90;99.90
22950;DHT22;11641;51.018;4.474;2022-09-13T16:31:26;24.80;99.90
22950;DHT22;11641;51.018;4.474;2022-09-13T16:33:56;24.70;99.90
22950;DHT22;11641;51.018;4.474;2022-09-13T16:36:22;24.70;99.90
22950;DHT22;11641;51.018;4.474;2022-09-13T16:38:58;24.60;99.90
22950;DHT22;11641;51.018;4.474;2022-09-13T16:41:24;24.60;99.90
22950;DHT22;11641;51.018;4.474;2022-09-13T16:43:50;24.50;99.90
22950;DHT22;11641;51.018;4.474;2022-09-13T16:46:20;24.30;99.90
22950;DHT22;11641;51.018;4.474;2022-09-13T16:48:56;24.20;99.90
22950;DHT22;11641;51.018;4.474;2022-09-13T16:51:25;24.20;99.90
22950;DHT22;11641;51.018;4.474;2022-09-13T16:53:53;24.20;99.90
22950;DHT22;11641;51.018;4.474;2022-09-13T16:56:24;24.10;99.90
22950;DHT22;11641;51.018;4.474;2022-09-13T16:58:51;24.00;99.90
22950;DHT22;11641;51.018;4.474;2022-09-13T17:01:23;24.00;99.90
22950;DHT22;11641;51.018;4.474;2022-09-13T17:03:55;23.90;99.90
22950;DHT22;11641;51.018;4.474;2022-09-13T17:06:22;23.90;99.90
22950;DHT22;11641;51.018;4.474;2022-09-13T17:08:59;23.80;99.90
22950;DHT22;11641;51.018;4.474;2022-09-13T17:11:28;23.80;99.90
22950;DHT22;11641;51.018;4.474;2022-09-13T17:14:01;23.70;99.90
22950;DHT22;11641;51.018;4.474;2022-09-13T17:16:34;23.70;99.90
22950;DHT22;11641;51.018;4.474;2022-09-13T17:19:01;23.60;99.90
22950;DHT22;11641;51.018;4.474;2022-09-13T17:21:28;23.50;99.90
22950;DHT22;11641;51.018;4.474;2022-09-13T17:23:54;23.50;99.90
22950;DHT22;11641;51.018;4.474;2022-09-13T17:26:22;23.50;99.90
22950;DHT22;11641;51.018;4.474;2022-09-13T17:28:48;23.50;99.90
22950;DHT22;11641;51.018;4.474;2022-09-13T17:31:14;23.40;99.90
22950;DHT22;11641;51.018;4.474;2022-09-13T17:33:40;23.30;99.90
22950;DHT22;11641;51.018;4.474;2022-09-13T17:36:07;23.30;99.90
22950;DHT22;11641;51.018;4.474;2022-09-13T17:38:37;23.30;99.90
22950;DHT22;11641;51.018;4.474;2022-09-13T17:43:35;23.20;99.90
22950;DHT22;11641;51.018;4.474;2022-09-13T17:46:17;23.20;99.90
22950;DHT22;11641;51.018;4.474;2022-09-13T17:48:47;23.20;99.90
22950;DHT22;11641;51.018;4.474;2022-09-13T17:51:20;23.10;99.90
22950;DHT22;11641;51.018;4.474;2022-09-13T17:53:51;23.10;99.90
22950;DHT22;11641;51.018;4.474;2022-09-13T17:56:26;23.10;99.90
22950;DHT22;11641;51.018;4.474;2022-09-13T17:58:55;23.10;99.90
22950;DHT22;11641;51.018;4.474;2022-09-13T18:01:21;23.00;99.90
22950;DHT22;11641;51.018;4.474;2022-09-13T18:03:48;23.00;99.90
22950;DHT22;11641;51.018;4.474;2022-09-13T18:06:17;23.00;99.90
22950;DHT22;11641;51.018;4.474;2022-09-13T18:08:42;23.00;99.90
22950;DHT22;11641;51.018;4.474;2022-09-13T18:11:13;22.90;99.90
22950;DHT22;11641;51.018;4.474;2022-09-13T18:13:43;22.90;99.90
22950;DHT22;11641;51.018;4.474;2022-09-13T18:16:15;22.80;99.90
22950;DHT22;11641;51.018;4.474;2022-09-13T18:18:42;22.80;99.90
22950;DHT22;11641;51.018;4.474;2022-09-13T18:21:11;22.80;99.90
22950;DHT22;11641;51.018;4.474;2022-09-13T18:23:39;22.80;99.90
22950;DHT22;11641;51.018;4.474;2022-09-13T18:26:10;22.70;99.90
22950;DHT22;11641;51.018;4.474;2022-09-13T18:28:39;22.70;99.90
22950;DHT22;11641;51.018;4.474;2022-09-13T18:31:06;22.70;99.90
22950;DHT22;11641;51.018;4.474;2022-09-13T18:33:34;22.70;99.90
22950;DHT22;11641;51.018;4.474;2022-09-13T18:36:06;22.70;99.90
22950;DHT22;11641;51.018;4.474;2022-09-13T18:38:34;22.70;99.90
22950;DHT22;11641;51.018;4.474;2022-09-13T18:41:08;22.60;99.90
22950;DHT22;11641;51.018;4.474;2022-09-13T18:43:35;22.60;99.90
22950;DHT22;11641;51.018;4.474;2022-09-13T18:46:06;22.50;99.90
22950;DHT22;11641;51.018;4.474;2022-09-13T18:48:37;22.50;99.90
22950;DHT22;11641;51.018;4.474;2022-09-13T18:51:05;22.50;99.90
22950;DHT22;11641;51.018;4.474;2022-09-13T18:53:33;22.50;99.90
22950;DHT22;11641;51.018;4.474;2022-09-13T18:56:04;22.50;99.90
22950;DHT22;11641;51.018;4.474;2022-09-13T18:58:34;22.40;99.90
22950;DHT22;11641;51.018;4.474;2022-09-13T19:01:05;22.50;99.90
22950;DHT22;11641;51.018;4.474;2022-09-13T19:03:31;22.50;99.90
22950;DHT22;11641;51.018;4.474;2022-09-13T19:06:29;22.40;99.90
22950;DHT22;11641;51.018;4.474;2022-09-13T19:08:59;22.50;99.90
22950;DHT22;11641;51.018;4.474;2022-09-13T19:11:27;22.40;99.90
22950;DHT22;11641;51.018;4.474;2022-09-13T19:13:53;22.40;99.90
22950;DHT22;11641;51.018;4.474;2022-09-13T19:16:20;22.40;99.90
22950;DHT22;11641;51.018;4.474;2022-09-13T19:18:48;22.50;99.90
22950;DHT22;11641;51.018;4.474;2022-09-13T19:21:24;22.50;99.90
22950;DHT22;11641;51.018;4.474;2022-09-13T19:23:52;22.50;99.90
22950;DHT22;11641;51.018;4.474;2022-09-13T19:26:19;22.50;99.90
22950;DHT22;11641;51.018;4.474;2022-09-13T19:29:02;22.50;99.90
22950;DHT22;11641;51.018;4.474;2022-09-13T19:31:32;22.50;99.90
22950;DHT22;11641;51.018;4.474;2022-09-13T19:33:58;22.50;99.90